Time;durP1;ratioP1;P1;durP2;ratioP2;P2;SDS_P1;SDS_P2;PMS_P1;PMS_P2;Temp;Humidity;BMP_temperature;BMP_pressure;BME280_temperature;BME280_humidity;BME280_pressure;Samples;Min_cycle;Max_cycle;Signal;HPM_P1;HPM_P2
2023/04/07 00:02:16;;;;;;;4.05;1.05;;;10.20;56.00;;;;;;4982142;28;82963;-71
2023/04/07 00:04:42;;;;;;;4.00;1.17;;;10.20;56.80;;;;;;4971388;28;82950;-71
2023/04/07 00:07:08;;;;;;;3.83;1.10;;;10.10;56.60;;;;;;4973637;28;81764;-72
2023/04/07 00:09:34;;;;;;;3.67;1.13;;;10.20;55.90;;;;;;4969465;28;82668;-71
2023/04/07 00:12:02;;;;;;;2.42;0.82;;;10.20;56.20;;;;;;4971739;28;83595;-72
2023/04/07 00:14:28;;;;;;;3.80;1.10;;;10.20;56.50;;;;;;4971796;28;83693;-72
2023/04/07 00:16:54;;;;;;;6.22;1.13;;;10.20;56.70;;;;;;4978751;28;82530;-71
2023/04/07 00:19:20;;;;;;;2.47;0.90;;;10.10;56.80;;;;;;4972536;28;83611;-71
2023/04/07 00:21:45;;;;;;;3.13;1.20;;;10.10;57.00;;;;;;4982901;28;83657;-70
2023/04/07 00:24:11;;;;;;;4.75;1.20;;;10.10;57.70;;;;;;4974681;28;82459;-71
2023/04/07 00:26:37;;;;;;;3.75;1.33;;;10.00;57.70;;;;;;4973546;28;84620;-72
2023/04/07 00:29:03;;;;;;;5.57;1.08;;;10.00;57.60;;;;;;4972595;28;83399;-72
2023/04/07 00:31:28;;;;;;;3.97;1.30;;;10.00;58.20;;;;;;4976909;28;82179;-72
2023/04/07 00:33:56;;;;;;;3.33;1.10;;;10.00;58.50;;;;;;4976463;28;82463;-71
2023/04/07 00:36:22;;;;;;;3.15;1.10;;;9.90;58.50;;;;;;4977496;28;82073;-71
2023/04/07 00:38:47;;;;;;;5.63;1.13;;;9.90;59.00;;;;;;4970179;28;84121;-72
2023/04/07 00:41:13;;;;;;;3.95;1.15;;;9.80;59.60;;;;;;4975485;28;83835;-72
2023/04/07 00:43:39;;;;;;;4.22;1.30;;;9.90;59.50;;;;;;4973032;28;82852;-72
2023/04/07 00:46:05;;;;;;;3.70;0.93;;;9.80;59.40;;;;;;4975642;28;82075;-71
2023/04/07 00:48:31;;;;;;;3.10;1.33;;;9.80;60.50;;;;;;4973806;28;84060;-70
2023/04/07 00:50:58;;;;;;;4.60;1.23;;;9.80;61.10;;;;;;4976267;28;82262;-70
2023/04/07 00:53:23;;;;;;;3.33;1.10;;;9.80;61.10;;;;;;4980785;28;82278;-71
2023/04/07 00:55:49;;;;;;;2.95;1.15;;;9.70;61.60;;;;;;4978066;28;81488;-71
2023/04/07 00:58:15;;;;;;;3.75;1.00;;;9.70;60.50;;;;;;4969968;28;82607;-71
2023/04/07 01:00:48;;;;;;;4.82;1.13;;;9.70;61.00;;;;;;4982100;28;82650;-71
2023/04/07 01:03:37;;;;;;;3.65;1.08;;;9.70;60.40;;;;;;4970123;28;84968;-70
2023/04/07 01:06:06;;;;;;;3.00;1.20;;;9.70;61.50;;;;;;4977586;28;82754;-71
2023/04/07 01:08:45;;;;;;;3.00;0.93;;;9.60;60.90;;;;;;4973116;28;83129;-71
2023/04/07 01:11:31;;;;;;;2.60;0.88;;;9.60;60.90;;;;;;4976095;28;82736;-71
2023/04/07 01:13:58;;;;;;;2.80;0.95;;;9.50;62.40;;;;;;4963860;28;83433;-70
2023/04/07 01:16:30;;;;;;;3.25;1.40;;;9.50;64.30;;;;;;4977768;28;82707;-71
2023/04/07 01:19:03;;;;;;;2.95;1.00;;;9.40;64.20;;;;;;4975895;28;85512;-71
2023/04/07 01:21:33;;;;;;;3.03;1.05;;;9.30;64.00;;;;;;4979362;28;82969;-71
2023/04/07 01:24:25;;;;;;;4.60;1.30;;;9.40;63.20;;;;;;4972712;28;83599;-70
2023/04/07 01:26:51;;;;;;;3.92;0.93;;;9.30;63.40;;;;;;4972181;28;82523;-71
2023/04/07 01:29:31;;;;;;;2.80;0.88;;;9.30;63.60;;;;;;4973829;28;83712;-71
2023/04/07 01:32:00;;;;;;;3.60;1.00;;;9.20;62.30;;;;;;4976312;28;83913;-68
2023/04/07 01:34:30;;;;;;;3.08;0.93;;;9.30;60.90;;;;;;4970773;28;82836;-70
2023/04/07 01:36:57;;;;;;;3.78;0.88;;;9.20;61.20;;;;;;4985603;28;82368;-71
2023/04/07 01:39:25;;;;;;;2.97;0.70;;;9.20;61.30;;;;;;4973877;28;84137;-69
2023/04/07 01:41:53;;;;;;;2.90;0.80;;;9.20;61.50;;;;;;4975360;28;83194;-69
2023/04/07 01:44:20;;;;;;;2.60;0.82;;;9.20;62.20;;;;;;4972071;28;83275;-71
2023/04/07 01:46:46;;;;;;;4.93;0.82;;;9.20;62.00;;;;;;4976498;28;81354;-69
2023/04/07 01:49:13;;;;;;;2.63;1.00;;;9.20;62.10;;;;;;4968613;28;83056;-72
2023/04/07 01:51:40;;;;;;;5.47;0.98;;;9.10;61.90;;;;;;4976125;28;84491;-69
2023/04/07 01:54:06;;;;;;;3.22;0.77;;;9.10;61.70;;;;;;4975608;28;83237;-71
2023/04/07 01:56:32;;;;;;;3.25;1.02;;;9.20;61.80;;;;;;4984743;28;82383;-71
2023/04/07 01:58:58;;;;;;;3.47;0.90;;;9.10;61.10;;;;;;4978447;28;83083;-69
2023/04/07 02:01:24;;;;;;;2.92;0.80;;;9.20;61.50;;;;;;4975701;28;82414;-70
2023/04/07 02:04:36;;;;;;;3.05;0.88;;;9.10;60.90;;;;;;4980916;28;81925;-69
2023/04/07 02:07:08;;;;;;;2.45;0.93;;;9.20;61.10;;;;;;4982200;28;82402;-69
2023/04/07 02:09:38;;;;;;;3.55;0.88;;;9.20;61.10;;;;;;4975125;28;83521;-69
2023/04/07 02:12:06;;;;;;;3.70;0.88;;;9.20;61.10;;;;;;4977587;28;83265;-71
2023/04/07 02:14:32;;;;;;;4.68;1.20;;;9.20;60.10;;;;;;4979875;28;82314;-70
2023/04/07 02:17:00;;;;;;;3.58;0.93;;;9.20;59.80;;;;;;4979177;28;83706;-72
2023/04/07 02:19:26;;;;;;;5.28;1.20;;;9.20;59.80;;;;;;4972608;28;84423;-71
2023/04/07 02:21:53;;;;;;;4.90;0.95;;;9.20;59.60;;;;;;4974491;28;84398;-71
2023/04/07 02:24:20;;;;;;;3.95;0.85;;;9.20;59.40;;;;;;4977631;28;82361;-70
2023/04/07 02:26:46;;;;;;;3.53;0.98;;;9.30;60.00;;;;;;4978165;28;82223;-72
2023/04/07 02:29:12;;;;;;;2.10;0.68;;;9.30;59.40;;;;;;4972903;28;83668;-72
2023/04/07 02:31:38;;;;;;;3.53;0.77;;;9.30;59.30;;;;;;4973980;28;83897;-71
2023/04/07 02:34:04;;;;;;;2.83;0.90;;;9.30;59.20;;;;;;4976380;28;82404;-71
2023/04/07 02:36:30;;;;;;;3.03;0.73;;;9.30;59.30;;;;;;4977898;28;82048;-71
2023/04/07 02:38:57;;;;;;;2.83;0.95;;;9.40;59.00;;;;;;4974780;28;83082;-69
2023/04/07 02:41:23;;;;;;;3.85;1.05;;;9.30;59.40;;;;;;4972407;28;82886;-71
2023/04/07 02:43:48;;;;;;;2.90;1.05;;;9.30;58.80;;;;;;4977296;28;83356;-71
2023/04/07 02:46:14;;;;;;;3.67;1.02;;;9.20;58.80;;;;;;4976614;28;82581;-71
2023/04/07 02:48:40;;;;;;;4.47;1.00;;;9.30;59.20;;;;;;4972409;28;83261;-70
2023/04/07 02:51:05;;;;;;;4.32;0.98;;;9.20;59.00;;;;;;4978125;28;83199;-71
2023/04/07 02:53:31;;;;;;;3.63;1.08;;;9.20;59.60;;;;;;4976573;28;82348;-71
2023/04/07 02:55:57;;;;;;;3.63;1.20;;;9.10;59.80;;;;;;4979838;28;82336;-70
2023/04/07 02:58:23;;;;;;;3.15;0.98;;;9.10;59.70;;;;;;4974044;28;83897;-71
2023/04/07 03:00:48;;;;;;;2.50;0.90;;;9.00;59.80;;;;;;4982299;28;82718;-71
2023/04/07 03:03:14;;;;;;;3.30;1.10;;;9.00;59.80;;;;;;4973014;28;82917;-71
2023/04/07 03:05:40;;;;;;;3.03;1.23;;;9.00;59.90;;;;;;4977765;28;82544;-70
2023/04/07 03:08:06;;;;;;;3.10;0.98;;;9.00;59.80;;;;;;4976523;28;84686;-71
2023/04/07 03:10:31;;;;;;;2.83;1.00;;;9.00;59.40;;;;;;4975655;28;83731;-71
2023/04/07 03:12:57;;;;;;;4.40;1.23;;;8.90;59.40;;;;;;4972763;28;83569;-71
2023/04/07 03:15:23;;;;;;;2.85;0.90;;;8.90;59.50;;;;;;4969900;28;82555;-71
2023/04/07 03:17:48;;;;;;;5.82;1.30;;;9.00;58.70;;;;;;4965794;28;84352;-72
2023/04/07 03:20:14;;;;;;;3.55;1.17;;;9.00;59.80;;;;;;4974284;28;83122;-71
2023/04/07 03:22:40;;;;;;;2.40;0.77;;;8.90;59.40;;;;;;4972736;28;82386;-71
2023/04/07 03:25:06;;;;;;;2.85;0.95;;;8.90;59.70;;;;;;4972976;28;82958;-71
2023/04/07 03:27:32;;;;;;;3.17;0.90;;;8.90;59.80;;;;;;4977571;28;83027;-71
2023/04/07 03:29:58;;;;;;;4.50;1.10;;;9.00;59.60;;;;;;4969654;28;83718;-71
2023/04/07 03:32:23;;;;;;;3.47;1.00;;;8.90;59.70;;;;;;4972111;28;82877;-72
2023/04/07 03:34:49;;;;;;;3.35;1.00;;;8.90;59.10;;;;;;4971266;28;83850;-69
2023/04/07 03:37:15;;;;;;;2.83;1.10;;;8.90;59.20;;;;;;4974282;28;83390;-71
2023/04/07 03:39:41;;;;;;;5.22;1.27;;;8.90;59.10;;;;;;4974850;28;82236;-71
2023/04/07 03:42:06;;;;;;;3.88;1.02;;;8.90;58.70;;;;;;4976126;28;82365;-71
2023/04/07 03:44:32;;;;;;;3.13;1.02;;;8.90;58.90;;;;;;4977761;28;82687;-70
2023/04/07 03:46:59;;;;;;;4.40;1.52;;;8.90;59.30;;;;;;4975847;28;83947;-70
2023/04/07 03:49:24;;;;;;;3.20;1.17;;;8.90;59.40;;;;;;4980535;28;82251;-72
2023/04/07 03:51:50;;;;;;;3.10;1.10;;;8.90;59.60;;;;;;4979562;28;82579;-69
2023/04/07 03:54:16;;;;;;;3.95;1.38;;;8.90;59.30;;;;;;4978788;28;82390;-72
2023/04/07 03:56:41;;;;;;;3.08;1.02;;;8.90;59.40;;;;;;4971054;28;83536;-72
2023/04/07 03:59:07;;;;;;;3.80;1.30;;;8.90;59.60;;;;;;4971120;28;83636;-71
2023/04/07 04:01:33;;;;;;;6.05;1.38;;;8.90;59.20;;;;;;4970616;28;83858;-70
2023/04/07 04:03:58;;;;;;;5.30;1.23;;;8.90;60.10;;;;;;4974490;28;84186;-71
2023/04/07 04:06:25;;;;;;;3.80;1.40;;;8.90;60.10;;;;;;4968090;28;82929;-70
2023/04/07 04:08:51;;;;;;;3.35;1.20;;;8.90;60.20;;;;;;4972034;28;82991;-70
2023/04/07 04:11:17;;;;;;;3.38;1.20;;;8.80;60.50;;;;;;4974835;28;84385;-71
2023/04/07 04:13:42;;;;;;;4.63;1.38;;;8.90;60.20;;;;;;4971403;28;82710;-69
2023/04/07 04:16:08;;;;;;;3.50;1.05;;;8.80;60.50;;;;;;4972251;28;84701;-69
2023/04/07 04:18:34;;;;;;;4.97;1.05;;;8.80;59.70;;;;;;4971369;28;82798;-70
2023/04/07 04:21:00;;;;;;;3.10;1.40;;;8.90;59.60;;;;;;4975658;28;83620;-70
2023/04/07 04:23:25;;;;;;;3.05;1.33;;;8.80;60.10;;;;;;4973754;28;84264;-72
2023/04/07 04:25:51;;;;;;;3.92;1.50;;;8.80;60.70;;;;;;4973797;28;83277;-72
2023/04/07 04:28:17;;;;;;;5.55;1.63;;;8.80;61.00;;;;;;4979513;28;82772;-70
2023/04/07 04:30:42;;;;;;;4.53;1.40;;;8.70;61.30;;;;;;4979448;28;82332;-70
2023/04/07 04:33:08;;;;;;;3.45;1.10;;;8.70;61.90;;;;;;4978827;28;83599;-69
2023/04/07 04:35:34;;;;;;;5.78;1.15;;;8.60;61.70;;;;;;4987140;28;82527;-69
2023/04/07 04:37:59;;;;;;;3.47;1.00;;;8.50;62.10;;;;;;4995403;28;82762;-71
2023/04/07 04:40:25;;;;;;;3.35;1.33;;;8.50;61.50;;;;;;4980661;28;82374;-71
2023/04/07 04:42:51;;;;;;;3.50;1.25;;;8.40;62.60;;;;;;4981031;28;82373;-70
2023/04/07 04:45:16;;;;;;;4.00;1.20;;;8.40;62.00;;;;;;4975133;28;84081;-72
2023/04/07 04:47:42;;;;;;;3.10;1.08;;;8.40;62.40;;;;;;4980187;28;83690;-70
2023/04/07 04:50:09;;;;;;;5.10;1.13;;;8.30;62.70;;;;;;4984884;28;83003;-71
2023/04/07 04:52:35;;;;;;;5.80;1.30;;;8.30;62.80;;;;;;4980033;28;83829;-68
2023/04/07 04:55:00;;;;;;;5.15;1.30;;;8.30;62.60;;;;;;4982887;28;82378;-71
2023/04/07 04:57:26;;;;;;;4.20;1.33;;;8.30;62.80;;;;;;4994570;28;82514;-70
2023/04/07 04:59:52;;;;;;;4.90;1.30;;;8.40;62.00;;;;;;4981092;28;82501;-70
2023/04/07 05:02:17;;;;;;;3.92;1.52;;;8.50;61.70;;;;;;4997363;28;81661;-70
2023/04/07 05:04:43;;;;;;;5.60;1.27;;;8.50;61.60;;;;;;4979524;28;83055;-68
2023/04/07 05:07:09;;;;;;;6.90;1.50;;;8.60;61.50;;;;;;4969832;28;83024;-69
2023/04/07 05:09:35;;;;;;;3.45;1.30;;;8.60;61.70;;;;;;4981678;28;83234;-70
2023/04/07 05:12:01;;;;;;;3.50;1.40;;;8.70;61.90;;;;;;4992180;28;82384;-71
2023/04/07 05:14:27;;;;;;;3.65;1.50;;;8.80;61.60;;;;;;4988611;28;82442;-69
2023/04/07 05:16:53;;;;;;;4.20;1.30;;;9.10;61.10;;;;;;4970356;28;82341;-69
2023/04/07 05:19:19;;;;;;;3.60;1.40;;;9.10;60.90;;;;;;4981881;28;82819;-70
2023/04/07 05:21:45;;;;;;;3.80;1.52;;;9.00;61.00;;;;;;4976133;28;82364;-71
2023/04/07 05:24:11;;;;;;;5.88;1.70;;;8.90;61.50;;;;;;4975036;28;82580;-71
2023/04/07 05:26:37;;;;;;;7.30;2.20;;;9.00;61.50;;;;;;4965813;28;83639;-73
2023/04/07 05:29:02;;;;;;;5.30;1.70;;;8.90;61.80;;;;;;4965528;28;84364;-69
2023/04/07 05:31:28;;;;;;;6.38;2.03;;;8.90;62.00;;;;;;4962053;28;83279;-71
2023/04/07 05:33:53;;;;;;;4.70;1.48;;;8.90;62.00;;;;;;4960902;28;83898;-71
2023/04/07 05:36:19;;;;;;;4.10;1.23;;;9.00;62.30;;;;;;4963722;28;83789;-70
2023/04/07 05:38:45;;;;;;;5.30;1.50;;;9.00;61.90;;;;;;4974237;28;83265;-73
2023/04/07 05:41:11;;;;;;;4.57;1.25;;;9.00;62.40;;;;;;4973804;28;82245;-72
2023/04/07 05:43:36;;;;;;;5.40;1.30;;;9.00;62.00;;;;;;4974451;28;83049;-72
2023/04/07 05:46:02;;;;;;;5.70;1.35;;;9.00;61.70;;;;;;4975818;28;82878;-74
2023/04/07 05:48:28;;;;;;;2.80;1.10;;;9.00;61.60;;;;;;4973335;28;82297;-71
2023/04/07 05:50:53;;;;;;;4.00;1.50;;;9.00;61.50;;;;;;4970384;28;81871;-69
2023/04/07 05:53:19;;;;;;;4.72;1.20;;;9.00;61.40;;;;;;4979763;28;83127;-70
2023/04/07 05:55:45;;;;;;;3.20;1.30;;;9.00;61.30;;;;;;4972232;28;82909;-71
2023/04/07 05:58:11;;;;;;;4.00;1.23;;;9.00;61.60;;;;;;4976372;28;83460;-70
2023/04/07 06:00:36;;;;;;;4.32;1.40;;;9.00;61.30;;;;;;4981255;28;82697;-71
2023/04/07 06:03:02;;;;;;;2.63;1.17;;;9.10;61.20;;;;;;4975285;28;82739;-70
2023/04/07 06:05:28;;;;;;;3.75;1.30;;;9.10;60.80;;;;;;4979975;28;84001;-71
2023/04/07 06:07:53;;;;;;;3.65;1.17;;;9.20;60.80;;;;;;4986934;28;81862;-69
2023/04/07 06:10:19;;;;;;;3.28;1.48;;;9.20;59.90;;;;;;4995585;28;82217;-71
2023/04/07 06:12:45;;;;;;;3.97;1.60;;;9.30;60.30;;;;;;4985407;28;83377;-68
2023/04/07 06:15:11;;;;;;;4.05;1.50;;;9.30;60.30;;;;;;4978201;28;82284;-69
2023/04/07 06:17:36;;;;;;;3.03;1.48;;;9.40;59.60;;;;;;4980010;28;82400;-70
2023/04/07 06:20:02;;;;;;;3.80;1.33;;;9.50;59.90;;;;;;4981267;28;82291;-71
2023/04/07 06:22:28;;;;;;;5.05;1.30;;;9.50;59.90;;;;;;4990224;28;85610;-71
2023/04/07 06:24:53;;;;;;;3.78;1.60;;;9.60;59.20;;;;;;4984819;28;83047;-69
2023/04/07 06:27:20;;;;;;;3.50;1.38;;;9.60;59.30;;;;;;4975246;28;83788;-69
2023/04/07 06:29:46;;;;;;;7.07;1.77;;;9.70;59.30;;;;;;4974427;28;83336;-69
2023/04/07 06:32:12;;;;;;;4.55;1.50;;;9.80;59.70;;;;;;4976108;28;82715;-71
2023/04/07 06:34:38;;;;;;;3.75;1.52;;;9.80;58.70;;;;;;4976767;28;82970;-69
2023/04/07 06:37:05;;;;;;;4.22;1.52;;;9.80;58.60;;;;;;4977052;28;82078;-69
2023/04/07 06:39:31;;;;;;;4.13;1.20;;;9.90;59.40;;;;;;4977792;28;82660;-71
2023/04/07 06:41:57;;;;;;;3.72;1.38;;;10.10;57.70;;;;;;4977285;28;82608;-72
2023/04/07 06:44:22;;;;;;;3.70;1.33;;;10.30;57.30;;;;;;4992728;28;82336;-71
2023/04/07 06:46:52;;;;;;;6.18;1.40;;;10.40;56.90;;;;;;4970750;28;84827;-70
2023/04/07 06:49:18;;;;;;;4.28;1.40;;;10.60;57.10;;;;;;4978039;28;83715;-71
2023/04/07 06:51:43;;;;;;;5.57;1.40;;;10.80;55.90;;;;;;4987425;28;83480;-70
2023/04/07 06:54:12;;;;;;;4.32;1.35;;;11.00;55.00;;;;;;4987837;28;82671;-71
2023/04/07 06:56:42;;;;;;;3.58;1.20;;;11.20;55.20;;;;;;4982381;28;82594;-71
2023/04/07 06:59:08;;;;;;;4.80;1.85;;;11.50;54.40;;;;;;4978311;28;82782;-71
2023/04/07 07:01:34;;;;;;;5.00;1.30;;;11.60;53.40;;;;;;4974663;28;82132;-69
2023/04/07 07:04:00;;;;;;;4.43;1.33;;;11.80;53.40;;;;;;4986210;28;82908;-69
2023/04/07 07:06:26;;;;;;;4.07;1.48;;;11.90;52.60;;;;;;4972497;28;83045;-69
2023/04/07 07:08:52;;;;;;;3.10;1.42;;;12.00;52.90;;;;;;4980236;28;83181;-69
2023/04/07 07:11:18;;;;;;;5.57;1.30;;;12.20;53.20;;;;;;4971876;28;84286;-71
2023/04/07 07:13:44;;;;;;;2.88;1.13;;;12.50;53.60;;;;;;4978433;28;83144;-70
2023/04/07 07:16:11;;;;;;;4.50;1.30;;;12.80;51.70;;;;;;4977149;28;83169;-73
2023/04/07 07:18:37;;;;;;;3.22;1.45;;;13.10;50.30;;;;;;4974610;28;82187;-70
2023/04/07 07:21:03;;;;;;;4.00;1.40;;;13.60;49.70;;;;;;4989359;28;82050;-71
2023/04/07 07:23:29;;;;;;;4.03;1.45;;;13.70;49.00;;;;;;4983920;28;82880;-71
2023/04/07 07:25:55;;;;;;;4.65;1.63;;;13.90;47.60;;;;;;4984110;28;82560;-70
2023/04/07 07:28:21;;;;;;;3.60;1.60;;;13.60;48.30;;;;;;4977179;28;82248;-70
2023/04/07 07:30:47;;;;;;;5.85;1.38;;;13.30;48.90;;;;;;4980905;28;83507;-71
2023/04/07 07:33:12;;;;;;;4.63;1.40;;;13.10;51.20;;;;;;4967053;28;82930;-71
2023/04/07 07:35:39;;;;;;;4.63;1.27;;;13.00;50.50;;;;;;4970915;28;83259;-69
2023/04/07 07:38:05;;;;;;;3.83;1.58;;;13.10;50.80;;;;;;4988679;28;82262;-70
2023/04/07 07:40:31;;;;;;;4.55;1.48;;;13.40;49.60;;;;;;4981625;28;82476;-68
2023/04/07 07:42:56;;;;;;;7.00;1.67;;;13.70;49.80;;;;;;4980756;28;82666;-72
2023/04/07 07:45:22;;;;;;;5.10;1.42;;;14.00;48.80;;;;;;4982908;28;82233;-70
2023/04/07 07:47:48;;;;;;;4.45;1.70;;;14.90;48.00;;;;;;4974084;28;83189;-71
2023/04/07 07:50:14;;;;;;;3.33;1.77;;;17.30;44.40;;;;;;4978029;28;83054;-71
2023/04/07 07:52:40;;;;;;;3.40;1.67;;;19.30;41.70;;;;;;4978512;28;82916;-73
2023/04/07 07:55:06;;;;;;;3.60;1.50;;;20.90;38.90;;;;;;4988658;28;82271;-71
2023/04/07 07:57:32;;;;;;;5.03;2.13;;;22.00;37.80;;;;;;4978468;28;82473;-71
2023/04/07 07:59:58;;;;;;;4.85;2.30;;;22.30;35.90;;;;;;4972206;28;85038;-71
2023/04/07 08:02:29;;;;;;;6.13;1.75;;;22.80;35.20;;;;;;4974892;28;83908;-71
2023/04/07 08:04:55;;;;;;;3.85;2.20;;;22.70;35.40;;;;;;4977584;28;83555;-71
2023/04/07 08:07:21;;;;;;;3.75;2.03;;;22.30;35.00;;;;;;4972029;28;82230;-73
2023/04/07 08:09:47;;;;;;;4.53;2.58;;;22.00;35.00;;;;;;4972478;28;83684;-72
2023/04/07 08:12:12;;;;;;;4.40;2.10;;;21.30;36.10;;;;;;4973870;28;83312;-71
2023/04/07 08:14:40;;;;;;;4.65;1.90;;;21.50;37.10;;;;;;4973840;28;84489;-72
2023/04/07 08:17:05;;;;;;;4.95;2.28;;;23.40;35.80;;;;;;4971220;28;81765;-71
2023/04/07 08:19:31;;;;;;;3.80;2.25;;;25.00;33.30;;;;;;4968424;28;83536;-70
2023/04/07 08:21:57;;;;;;;4.72;1.90;;;24.70;31.90;;;;;;4974621;28;82353;-71
2023/04/07 08:24:23;;;;;;;4.47;2.35;;;24.00;33.60;;;;;;4980756;28;83351;-70
2023/04/07 08:26:48;;;;;;;5.82;2.30;;;24.80;33.20;;;;;;4981451;28;82492;-71
2023/04/07 08:29:14;;;;;;;5.30;2.40;;;26.00;32.30;;;;;;4986437;28;83395;-71
2023/04/07 08:31:40;;;;;;;4.32;2.95;;;26.80;31.10;;;;;;4970259;28;82281;-70
2023/04/07 08:34:06;;;;;;;5.53;2.88;;;27.90;30.70;;;;;;4976326;28;82332;-69
2023/04/07 08:36:31;;;;;;;4.13;2.72;;;29.40;29.30;;;;;;4966931;28;83914;-72
2023/04/07 08:38:59;;;;;;;3.30;2.42;;;29.80;28.10;;;;;;4983742;28;83015;-71
2023/04/07 08:41:38;;;;;;;4.95;2.83;;;30.40;28.10;;;;;;4971221;28;83068;-72
2023/04/07 08:44:06;;;;;;;5.03;3.38;;;31.20;28.50;;;;;;4982775;28;81990;-72
2023/04/07 08:46:33;;;;;;;5.18;3.03;;;31.40;29.10;;;;;;4978410;28;83478;-72
2023/04/07 08:49:00;;;;;;;6.60;3.78;;;33.60;28.80;;;;;;4986009;28;83469;-69
2023/04/07 08:51:28;;;;;;;6.03;3.92;;;34.30;28.50;;;;;;4970756;28;84478;-70
2023/04/07 08:54:08;;;;;;;3.92;3.42;;;35.60;28.40;;;;;;4977573;28;82194;-71
2023/04/07 08:56:33;;;;;;;3.65;2.55;;;36.10;27.90;;;;;;4974007;28;82468;-70
2023/04/07 08:59:01;;;;;;;4.05;2.60;;;34.70;28.10;;;;;;4970834;28;82850;-69
2023/04/07 09:01:28;;;;;;;6.38;2.95;;;32.40;28.90;;;;;;4974237;28;84231;-73
2023/04/07 09:03:57;;;;;;;4.07;2.70;;;31.40;29.50;;;;;;4975682;28;83598;-71
2023/04/07 09:06:23;;;;;;;5.13;3.00;;;30.70;30.00;;;;;;4974004;28;83598;-73
2023/04/07 09:08:49;;;;;;;5.18;2.70;;;29.80;29.90;;;;;;4974477;28;82660;-71
2023/04/07 09:11:15;;;;;;;5.65;2.80;;;29.20;29.90;;;;;;4969332;28;83719;-71
2023/04/07 09:13:40;;;;;;;4.43;2.88;;;28.80;30.90;;;;;;4975870;28;83362;-72
2023/04/07 09:16:06;;;;;;;3.75;2.72;;;29.20;30.80;;;;;;4977760;28;82320;-73
2023/04/07 09:18:32;;;;;;;3.20;2.58;;;29.70;30.60;;;;;;4972275;28;84008;-72
2023/04/07 09:21:04;;;;;;;4.22;2.83;;;29.70;29.60;;;;;;4970214;28;82983;-71
2023/04/07 09:23:35;;;;;;;5.03;3.28;;;30.20;29.50;;;;;;4973975;28;83596;-71
2023/04/07 09:26:17;;;;;;;4.20;2.83;;;29.80;29.80;;;;;;4978485;28;82859;-71
2023/04/07 09:28:47;;;;;;;5.78;2.70;;;29.40;29.10;;;;;;4976482;28;83099;-71
2023/04/07 09:31:13;;;;;;;5.50;2.65;;;28.80;29.30;;;;;;4984867;28;83203;-71
2023/04/07 09:33:39;;;;;;;3.95;2.42;;;28.40;29.60;;;;;;4985539;28;83632;-72
2023/04/07 09:36:06;;;;;;;4.90;2.50;;;28.20;29.40;;;;;;4984512;28;82138;-71
2023/04/07 09:38:37;;;;;;;4.88;2.70;;;28.10;30.50;;;;;;4977563;28;84600;-73
2023/04/07 09:41:10;;;;;;;4.25;2.92;;;27.50;30.40;;;;;;4973317;28;84049;-71
2023/04/07 09:43:44;;;;;;;3.53;2.30;;;26.70;31.50;;;;;;4979829;28;81958;-70
2023/04/07 09:46:14;;;;;;;3.85;2.38;;;26.00;32.50;;;;;;4974497;28;82937;-72
2023/04/07 09:48:42;;;;;;;5.68;2.03;;;25.30;31.80;;;;;;4985838;28;83015;-70
2023/04/07 09:51:12;;;;;;;5.28;2.25;;;24.60;32.00;;;;;;4974760;28;82371;-70
2023/04/07 09:53:48;;;;;;;5.40;2.45;;;24.10;34.00;;;;;;4977380;28;83534;-70
2023/04/07 09:56:21;;;;;;;4.88;1.95;;;23.30;34.60;;;;;;4979231;28;81338;-70
2023/04/07 09:58:47;;;;;;;4.55;1.98;;;22.60;35.20;;;;;;4996706;28;83323;-71
2023/04/07 10:01:18;;;;;;;7.18;2.08;;;22.30;35.50;;;;;;4975920;28;82607;-70
2023/04/07 10:03:45;;;;;;;5.97;2.10;;;21.80;36.70;;;;;;4981246;28;83208;-70
2023/04/07 10:06:12;;;;;;;4.80;2.05;;;21.30;36.90;;;;;;4978307;28;82086;-71
2023/04/07 10:08:40;;;;;;;4.75;1.95;;;20.90;37.00;;;;;;4978911;28;83001;-70
2023/04/07 10:11:06;;;;;;;3.97;1.92;;;20.80;38.20;;;;;;4971062;28;83613;-70
2023/04/07 10:13:34;;;;;;;5.40;1.80;;;20.80;38.10;;;;;;4975858;28;82562;-71
2023/04/07 10:16:03;;;;;;;4.45;1.65;;;20.50;37.90;;;;;;4970449;28;84270;-70
2023/04/07 10:18:31;;;;;;;3.85;2.13;;;20.20;37.80;;;;;;4971587;28;83811;-70
2023/04/07 10:21:09;;;;;;;3.33;1.65;;;19.90;37.90;;;;;;4979852;28;83302;-71
2023/04/07 10:23:50;;;;;;;3.50;1.42;;;19.60;36.30;;;;;;4981198;28;82440;-71
2023/04/07 10:26:18;;;;;;;3.45;1.13;;;19.50;37.70;;;;;;4971150;28;83469;-71
2023/04/07 10:28:48;;;;;;;3.33;1.42;;;19.50;37.80;;;;;;4974126;28;83858;-71
2023/04/07 10:31:15;;;;;;;4.40;1.92;;;19.50;37.80;;;;;;4978421;28;83849;-70
2023/04/07 10:33:45;;;;;;;4.30;1.60;;;19.70;38.50;;;;;;4982283;28;82486;-71
2023/04/07 10:36:11;;;;;;;;;;;19.70;38.00;;;;;;4985167;28;82678;-70
2023/04/07 10:38:36;;;;;;;4.93;1.70;;;19.80;38.20;;;;;;4987735;28;83084;-71
2023/04/07 10:41:32;;;;;;;5.03;1.55;;;19.80;37.60;;;;;;4977739;28;84500;-70
2023/04/07 10:43:57;;;;;;;;;;;19.90;38.70;;;;;;4978230;28;82467;-71
2023/04/07 10:46:23;;;;;;;4.38;1.60;;;20.00;36.90;;;;;;4971397;28;84813;-70
2023/04/07 10:49:08;;;;;;;5.72;1.75;;;20.00;38.40;;;;;;4961454;28;82491;-70
2023/04/07 10:51:34;;;;;;;4.75;1.80;;;19.90;41.10;;;;;;4972993;28;82738;-73
2023/04/07 10:54:21;;;;;;;3.40;1.30;;;20.00;38.50;;;;;;4975489;28;83668;-72
2023/04/07 10:57:01;;;;;;;3.97;1.90;;;19.90;39.60;;;;;;4972751;28;82486;-70
2023/04/07 10:59:33;;;;;;;3.50;1.67;;;19.70;38.70;;;;;;4964923;28;84388;-71
2023/04/07 11:02:11;;;;;;;4.75;1.98;;;19.80;38.30;;;;;;4968328;28;84147;-71
2023/04/07 11:04:38;;;;;;;6.20;1.73;;;19.90;38.70;;;;;;4972905;28;84688;-70
2023/04/07 11:07:03;;;;;;;3.33;1.40;;;19.70;36.40;;;;;;4968413;28;83413;-71
2023/04/07 11:09:29;;;;;;;3.67;1.65;;;19.70;38.10;;;;;;4974555;28;82657;-71
2023/04/07 11:11:55;;;;;;;3.80;1.70;;;19.70;37.40;;;;;;4972552;28;82861;-72
2023/04/07 11:14:26;;;;;;;5.35;1.83;;;19.60;37.30;;;;;;4964019;28;83482;-69
2023/04/07 11:16:52;;;;;;;6.22;1.83;;;19.60;38.70;;;;;;4961945;28;83207;-69
2023/04/07 11:19:18;;;;;;;5.60;1.77;;;19.40;38.60;;;;;;4963850;28;84034;-71
2023/04/07 11:21:44;;;;;;;4.10;1.58;;;19.40;39.20;;;;;;4970820;28;84201;-71
2023/04/07 11:24:10;;;;;;;3.75;1.27;;;19.50;38.60;;;;;;4971501;28;82130;-72
2023/04/07 11:26:42;;;;;;;3.33;1.42;;;19.70;38.40;;;;;;4963575;28;83890;-71
2023/04/07 11:29:09;;;;;;;5.75;1.52;;;20.00;38.70;;;;;;4968815;28;83216;-70
2023/04/07 11:31:35;;;;;;;3.20;1.75;;;20.10;39.20;;;;;;4975829;28;82831;-70
2023/04/07 11:34:06;;;;;;;4.07;1.75;;;20.00;38.40;;;;;;4978586;28;82806;-70
2023/04/07 11:36:33;;;;;;;4.53;1.17;;;20.20;38.80;;;;;;4983478;28;81483;-72
2023/04/07 11:39:01;;;;;;;3.10;1.25;;;20.30;38.10;;;;;;4969476;28;82532;-70
2023/04/07 11:41:29;;;;;;;4.43;1.25;;;20.20;39.20;;;;;;4977217;28;82992;-71
2023/04/07 11:44:11;;;;;;;4.97;1.60;;;20.30;39.40;;;;;;4983108;28;83879;-71
2023/04/07 11:46:58;;;;;;;4.57;1.88;;;20.40;39.80;;;;;;4979084;28;82456;-72
2023/04/07 11:49:28;;;;;;;3.88;1.50;;;20.30;39.20;;;;;;4975328;28;82620;-70
2023/04/07 11:52:01;;;;;;;3.58;1.30;;;19.90;39.40;;;;;;4990054;28;82927;-72
2023/04/07 11:54:41;;;;;;;4.05;1.50;;;19.70;39.40;;;;;;4976883;28;83275;-72
2023/04/07 11:57:09;;;;;;;3.60;1.30;;;19.60;40.10;;;;;;4975087;28;82791;-71
2023/04/07 11:59:35;;;;;;;5.70;1.30;;;19.30;40.80;;;;;;4982939;28;83005;-71
2023/04/07 12:02:00;;;;;;;5.13;1.33;;;19.20;41.80;;;;;;4969704;28;82668;-70
2023/04/07 12:04:26;;;;;;;6.45;1.65;;;19.40;42.30;;;;;;4974915;28;81997;-71
2023/04/07 12:06:52;;;;;;;5.82;1.65;;;19.70;40.80;;;;;;4976324;28;82801;-71
2023/04/07 12:09:30;;;;;;;4.32;1.58;;;19.50;41.60;;;;;;4975987;28;83097;-71
2023/04/07 12:11:56;;;;;;;5.32;1.50;;;19.30;42.60;;;;;;4970927;28;83269;-71
2023/04/07 12:14:23;;;;;;;5.30;1.50;;;19.10;43.60;;;;;;4967316;28;82789;-73
2023/04/07 12:16:49;;;;;;;7.28;1.52;;;19.10;43.30;;;;;;4971398;28;84619;-70
2023/04/07 12:19:15;;;;;;;4.15;1.67;;;19.00;44.10;;;;;;4981047;28;83166;-70
2023/04/07 12:21:41;;;;;;;4.75;1.42;;;19.00;44.60;;;;;;4988683;28;82497;-71
2023/04/07 12:24:06;;;;;;;4.72;1.65;;;18.90;43.20;;;;;;4984717;28;82289;-71
2023/04/07 12:26:32;;;;;;;5.78;1.00;;;19.00;44.00;;;;;;4959009;28;83078;-73
2023/04/07 12:29:03;;;;;;;11.27;1.63;;;18.70;43.60;;;;;;4964747;28;83895;-72
2023/04/07 12:31:31;;;;;;;2.75;1.15;;;18.80;45.00;;;;;;4971392;28;83551;-71
2023/04/07 12:33:57;;;;;;;3.90;1.17;;;19.00;44.50;;;;;;4958931;28;84284;-71
2023/04/07 12:36:24;;;;;;;5.32;1.58;;;18.90;44.10;;;;;;4968458;28;84074;-70
2023/04/07 12:38:49;;;;;;;5.57;1.48;;;18.90;45.30;;;;;;4985862;28;85486;-69
2023/04/07 12:41:15;;;;;;;4.82;1.73;;;18.70;44.50;;;;;;4984045;28;82803;-71
2023/04/07 12:43:41;;;;;;;5.93;1.65;;;18.60;45.60;;;;;;4988236;28;82184;-72
2023/04/07 12:46:06;;;;;;;3.67;1.50;;;18.30;46.60;;;;;;4983133;28;83273;-69
2023/04/07 12:48:32;;;;;;;4.82;1.65;;;18.10;47.20;;;;;;4974972;28;82638;-70
2023/04/07 12:50:58;;;;;;;6.40;1.35;;;17.90;46.90;;;;;;4987139;28;82982;-69
2023/04/07 12:53:23;;;;;;;6.05;1.38;;;17.80;46.90;;;;;;4974875;28;82679;-71
2023/04/07 12:55:49;;;;;;;8.88;3.97;;;17.80;47.80;;;;;;4967082;28;83367;-73